Time;durP1;ratioP1;P1;durP2;ratioP2;P2;SDS_P1;SDS_P2;PMS_P1;PMS_P2;Temp;Humidity;BMP_temperature;BMP_pressure;BME280_temperature;BME280_humidity;BME280_pressure;Samples;Min_cycle;Max_cycle;Signal;HPM_P1;HPM_P2
2024/03/13 00:00:36;;;;;;;;;;;;;;;19.58;48.11;101098.72;2067678;28;6088;-67
2024/03/13 00:01:38;;;;;;;;;;;;;;;19.57;48.13;101105.88;2068885;28;2422;-66
2024/03/13 00:02:41;;;;;;;;;;;;;;;19.58;48.24;101100.88;2069592;28;1707;-67
2024/03/13 00:03:42;;;;;;;;;;;;;;;19.57;48.24;101102.25;2069119;28;2059;-66
2024/03/13 00:04:44;;;;;;;;;;;;;;;19.57;48.23;101105.88;2068666;28;2194;-67
2024/03/13 00:05:47;;;;;;;;;;;;;;;19.57;48.21;101100.13;2070178;28;2009;-66
2024/03/13 00:06:50;;;;;;;;;;;;;;;19.57;48.24;101103.00;2069448;28;1665;-66
2024/03/13 00:07:51;;;;;;;;;;;;;;;19.57;48.21;101110.88;2068765;28;2188;-66
2024/03/13 00:08:53;;;;;;;;;;;;;;;19.56;48.22;101098.66;2069407;28;2050;-67
2024/03/13 00:09:56;;;;;;;;;;;;;;;19.56;48.18;101113.00;2070068;28;2028;-67
2024/03/13 00:10:58;;;;;;;;;;;;;;;19.56;48.19;101110.13;2069655;28;2059;-66
2024/03/13 00:12:00;;;;;;;;;;;;;;;19.56;48.19;101104.38;2069064;28;1641;-67
2024/03/13 00:13:01;;;;;;;;;;;;;;;19.56;48.26;101107.25;2069474;28;1636;-66
2024/03/13 00:14:02;;;;;;;;;;;;;;;19.56;48.23;101115.88;2070402;28;1623;-66
2024/03/13 00:15:05;;;;;;;;;;;;;;;19.56;48.21;101104.38;2068086;28;2242;-67
2024/03/13 00:16:06;;;;;;;;;;;;;;;19.56;48.24;101118.75;2068937;28;2158;-66
2024/03/13 00:17:10;;;;;;;;;;;;;;;19.56;48.08;101117.97;2068236;28;2012;-66
2024/03/13 00:18:11;;;;;;;;;;;;;;;19.57;48.24;101110.88;2070098;28;2082;-67
2024/03/13 00:19:12;;;;;;;;;;;;;;;19.55;48.15;101105.00;2066503;28;2011;-66
2024/03/13 00:20:14;;;;;;;;;;;;;;;19.55;48.24;101114.38;2068181;28;1653;-66
2024/03/13 00:21:16;;;;;;;;;;;;;;;19.55;48.23;101114.38;2069420;28;1632;-66
2024/03/13 00:22:21;;;;;;;;;;;;;;;19.55;48.23;101114.38;2068426;28;1742;-66
2024/03/13 00:23:22;;;;;;;;;;;;;;;19.55;48.21;101117.25;2068596;28;1825;-67
2024/03/13 00:24:24;;;;;;;;;;;;;;;19.55;48.07;101113.63;2067223;28;2142;-66
2024/03/13 00:25:25;;;;;;;;;;;;;;;19.55;48.10;101113.63;2067758;28;2126;-66
2024/03/13 00:26:26;;;;;;;;;;;;;;;19.54;48.17;101121.50;2070181;28;1604;-65
2024/03/13 00:27:28;;;;;;;;;;;;;;;19.55;48.19;101119.38;2067980;28;2060;-66
2024/03/13 00:28:29;;;;;;;;;;;;;;;19.54;48.02;101115.78;2068875;28;2238;-66
2024/03/13 00:29:31;;;;;;;;;;;;;;;19.54;48.21;101117.88;2067459;28;2102;-66
2024/03/13 00:30:32;;;;;;;;;;;;;;;19.54;48.19;101115.00;2069228;28;6070;-67
2024/03/13 00:31:33;;;;;;;;;;;;;;;19.53;48.15;101114.25;2068100;28;1968;-66
2024/03/13 00:32:35;;;;;;;;;;;;;;;19.53;48.07;101125.75;2067839;28;1640;-66
2024/03/13 00:33:38;;;;;;;;;;;;;;;19.52;48.17;101109.91;2066915;28;2067;-67
2024/03/13 00:34:40;;;;;;;;;;;;;;;19.52;48.10;101127.16;2071251;28;1723;-66
2024/03/13 00:35:41;;;;;;;;;;;;;;;19.53;48.14;101122.88;2068703;28;1938;-66
2024/03/13 00:36:43;;;;;;;;;;;;;;;19.53;48.10;101122.88;2069125;28;2201;-66
2024/03/13 00:37:45;;;;;;;;;;;;;;;19.53;48.12;101122.88;2068920;28;1681;-66
2024/03/13 00:38:46;;;;;;;;;;;;;;;19.52;48.18;101124.28;2069028;28;2126;-67
2024/03/13 00:39:48;;;;;;;;;;;;;;;19.52;48.21;101115.66;2069096;28;1846;-67
2024/03/13 00:40:49;;;;;;;;;;;;;;;19.52;48.15;101117.78;2070781;28;2074;-67
2024/03/13 00:41:50;;;;;;;;;;;;;;;19.52;48.25;101126.41;2069452;28;1872;-67
2024/03/13 00:42:54;;;;;;;;;;;;;;;19.51;48.14;101113.41;2069431;28;1680;-66
2024/03/13 00:43:56;;;;;;;;;;;;;;;19.51;48.18;101108.41;2067953;28;2078;-67
2024/03/13 00:44:57;;;;;;;;;;;;;;;19.51;48.28;101119.91;2068876;28;1725;-66
2024/03/13 00:45:59;;;;;;;;;;;;;;;19.51;48.14;101117.03;2069192;28;2201;-66
2024/03/13 00:47:03;;;;;;;;;;;;;;;19.51;48.13;101117.03;2068680;28;1649;-66
2024/03/13 00:48:05;;;;;;;;;;;;;;;19.51;48.22;101114.16;2067791;28;1720;-66
2024/03/13 00:49:07;;;;;;;;;;;;;;;19.51;48.20;101117.03;2067896;28;2039;-66
2024/03/13 00:50:12;;;;;;;;;;;;;;;19.50;48.16;101112.66;2069350;28;2338;-67
2024/03/13 00:51:13;;;;;;;;;;;;;;;19.50;48.14;101109.78;2066234;28;2126;-66
2024/03/13 00:52:15;;;;;;;;;;;;;;;19.51;48.18;101111.28;2069560;28;2169;-66
2024/03/13 00:53:17;;;;;;;;;;;;;;;19.52;48.12;101109.16;2069608;28;1819;-66
2024/03/13 00:54:20;;;;;;;;;;;;;;;19.52;48.12;101109.91;2067783;28;2118;-66
2024/03/13 00:55:23;;;;;;;;;;;;;;;19.52;48.09;101109.91;2068806;28;1867;-66
2024/03/13 00:56:29;;;;;;;;;;;;;;;19.52;48.10;101114.91;2069531;28;2081;-67
2024/03/13 00:57:30;;;;;;;;;;;;;;;19.52;48.12;101109.91;2069399;28;1757;-66
2024/03/13 00:58:33;;;;;;;;;;;;;;;19.52;48.04;101109.91;2069954;28;1712;-67
2024/03/13 00:59:35;;;;;;;;;;;;;;;19.51;48.09;101107.66;2068898;28;2059;-66
2024/03/13 01:00:37;;;;;;;;;;;;;;;19.51;48.18;101099.78;2068744;28;6206;-66
2024/03/13 01:01:40;;;;;;;;;;;;;;;19.52;48.03;101109.91;2068806;28;2015;-67
2024/03/13 01:02:42;;;;;;;;;;;;;;;19.50;48.07;101104.06;2068806;28;1632;-66
2024/03/13 01:03:45;;;;;;;;;;;;;;;19.50;48.06;101106.94;2067276;28;2155;-67
2024/03/13 01:04:48;;;;;;;;;;;;;;;19.51;47.99;101107.66;2069517;28;1605;-66
2024/03/13 01:05:49;;;;;;;;;;;;;;;19.50;48.18;101101.19;2068928;28;2075;-66
2024/03/13 01:06:51;;;;;;;;;;;;;;;19.51;48.10;101102.66;2069200;28;1875;-66
2024/03/13 01:07:53;;;;;;;;;;;;;;;19.50;48.10;101098.31;2068151;28;1832;-66
2024/03/13 01:08:55;;;;;;;;;;;;;;;19.51;48.07;101096.19;2067371;28;1881;-66
2024/03/13 01:09:56;;;;;;;;;;;;;;;19.50;48.05;101106.94;2067007;28;2103;-66
2024/03/13 01:11:00;;;;;;;;;;;;;;;19.50;48.09;101106.94;2067796;28;2008;-66
2024/03/13 01:12:02;;;;;;;;;;;;;;;19.50;47.96;101100.44;2069523;28;2155;-66
2024/03/13 01:13:05;;;;;;;;;;;;;;;19.50;48.12;101101.19;2069990;28;1712;-66
2024/03/13 01:14:06;;;;;;;;;;;;;;;19.49;48.14;101102.56;2068298;28;2185;-66
2024/03/13 01:15:08;;;;;;;;;;;;;;;19.48;48.10;101091.72;2067641;28;2047;-66
2024/03/13 01:16:09;;;;;;;;;;;;;;;19.49;48.09;101093.94;2067068;28;1973;-66
2024/03/13 01:17:11;;;;;;;;;;;;;;;19.48;48.09;101098.19;2069284;28;1665;-66
2024/03/13 01:18:12;;;;;;;;;;;;;;;19.48;48.14;101092.47;2068058;28;2083;-66
2024/03/13 01:19:13;;;;;;;;;;;;;;;19.48;48.12;101098.19;2069443;28;1922;-66
2024/03/13 01:20:18;;;;;;;;;;;;;;;19.47;47.98;101096.72;2068012;28;2055;-66
2024/03/13 01:21:21;;;;;;;;;;;;;;;19.46;48.02;101090.22;2068888;28;2078;-67
2024/03/13 01:22:24;;;;;;;;;;;;;;;19.46;48.09;101100.97;2068645;28;1624;-67
2024/03/13 01:23:26;;;;;;;;;;;;;;;19.45;48.05;101088.72;2067899;28;2071;-67
2024/03/13 01:24:27;;;;;;;;;;;;;;;19.48;47.97;101092.47;2068270;28;1944;-66
2024/03/13 01:25:28;;;;;;;;;;;;;;;19.47;48.10;101090.97;2068197;28;2174;-67
2024/03/13 01:26:34;;;;;;;;;;;;;;;19.47;48.04;101090.97;2069534;28;2035;-67
2024/03/13 01:27:35;;;;;;;;;;;;;;;19.47;47.97;101088.09;2067976;28;1668;-66
2024/03/13 01:28:37;;;;;;;;;;;;;;;19.46;48.06;101090.22;2067723;28;2035;-66
2024/03/13 01:29:41;;;;;;;;;;;;;;;19.46;48.01;101089.47;2068764;28;1613;-66
2024/03/13 01:30:43;;;;;;;;;;;;;;;19.46;48.03;101092.34;2068652;28;5982;-66
2024/03/13 01:31:45;;;;;;;;;;;;;;;19.47;48.11;101105.34;2069867;28;1704;-67
2024/03/13 01:32:47;;;;;;;;;;;;;;;19.47;47.91;101099.59;2068043;28;2149;-66
2024/03/13 01:33:49;;;;;;;;;;;;;;;19.47;47.99;101096.72;2069301;28;1967;-66
2024/03/13 01:34:50;;;;;;;;;;;;;;;19.47;48.01;101102.47;2069213;28;1877;-66
2024/03/13 01:35:51;;;;;;;;;;;;;;;19.45;47.98;101105.97;2068533;28;1624;-66
2024/03/13 01:38:13;;;;;;;;;;;;;;;19.46;48.06;101103.84;2069558;28;1653;-66
2024/03/13 01:39:17;;;;;;;;;;;;;;;19.45;48.05;101110.97;2069895;28;1653;-66
2024/03/13 01:40:23;;;;;;;;;;;;;;;19.46;47.94;101106.69;2067722;28;1592;-66
2024/03/13 01:55:28;;;;;;;;;;;;;;;19.44;47.96;101100.84;2068736;28;1623;-68
2024/03/13 01:56:30;;;;;;;;;;;;;;;19.43;48.05;101096.50;2067912;28;2075;-68
2024/03/13 01:57:33;;;;;;;;;;;;;;;19.42;48.02;101103.59;2067107;28;2145;-67
2024/03/13 01:58:40;;;;;;;;;;;;;;;19.42;48.07;101107.25;2068280;28;1685;-68
2024/03/13 02:02:22;;;;;;;;;;;;;;;19.41;48.09;101099.25;2068759;28;1581;-67
2024/03/13 02:02:32;;;;;;;;;;;;;;;19.40;48.05;101107.13;2068319;28;2137;-68
2024/03/13 02:03:34;;;;;;;;;;;;;;;19.40;48.11;101095.66;2067495;28;2147;-68
2024/03/13 02:04:36;;;;;;;;;;;;;;;19.40;48.05;101092.00;2069455;28;1899;-68
2024/03/13 02:05:37;;;;;;;;;;;;;;;19.40;47.99;101100.63;2066791;28;2063;-67
2024/03/13 02:06:39;;;;;;;;;;;;;;;19.40;48.04;101092.00;2068044;28;1914;-68
2024/03/13 02:07:40;;;;;;;;;;;;;;;19.39;48.05;101093.41;2068290;28;1569;-67
2024/03/13 02:08:43;;;;;;;;;;;;;;;19.40;48.00;101097.75;2067630;28;1573;-68
2024/03/13 02:09:45;;;;;;;;;;;;;;;19.39;48.02;101097.00;2068614;28;1624;-67
2024/03/13 02:10:47;;;;;;;;;;;;;;;19.40;48.02;101098.53;2067809;28;2213;-67
2024/03/13 02:11:49;;;;;;;;;;;;;;;19.39;48.01;101090.53;2069475;28;1616;-67
2024/03/13 02:12:59;;;;;;;;;;;;;;;19.39;47.93;101096.28;2067169;28;2071;-67
2024/03/13 02:14:04;;;;;;;;;;;;;;;19.39;47.96;101096.28;2067566;28;1640;-68
2024/03/13 02:15:06;;;;;;;;;;;;;;;19.39;48.05;101102.00;2066962;28;2063;-68
2024/03/13 02:16:07;;;;;;;;;;;;;;;19.39;48.06;101102.00;2067099;28;2182;-68
2024/03/13 02:17:10;;;;;;;;;;;;;;;19.39;48.07;101093.41;2068021;28;2052;-68
2024/03/13 02:18:16;;;;;;;;;;;;;;;19.39;47.94;101090.53;2067813;28;1723;-67
2024/03/13 02:19:18;;;;;;;;;;;;;;;19.39;48.21;101097.00;2067911;28;2187;-67
2024/03/13 02:20:26;;;;;;;;;;;;;;;19.39;47.97;101096.28;2067466;28;2119;-67
2024/03/13 02:21:28;;;;;;;;;;;;;;;19.39;47.98;101090.53;2068107;28;1959;-67
2024/03/13 02:22:30;;;;;;;;;;;;;;;19.39;47.98;101091.25;2068988;28;2062;-68
2024/03/13 02:23:31;;;;;;;;;;;;;;;19.39;48.02;101090.53;2067421;28;2036;-67
2024/03/13 02:24:33;;;;;;;;;;;;;;;19.37;47.99;101088.28;2068365;28;2064;-67
2024/03/13 02:25:34;;;;;;;;;;;;;;;19.39;48.04;101091.25;2068385;28;1986;-67
2024/03/13 02:26:39;;;;;;;;;;;;;;;19.38;47.75;101089.03;2067552;28;2082;-67
2024/03/13 02:27:41;;;;;;;;;;;;;;;19.37;48.00;101091.16;2066404;28;1628;-67
2024/03/13 02:28:42;;;;;;;;;;;;;;;19.37;47.94;101096.91;2065966;28;2029;-67
2024/03/13 02:29:46;;;;;;;;;;;;;;;19.37;47.92;101090.41;2066290;28;1633;-67
2024/03/13 02:30:47;;;;;;;;;;;;;;;19.37;47.94;101099.78;2065026;28;6061;-67
2024/03/13 02:31:49;;;;;;;;;;;;;;;19.36;47.98;101101.16;2067302;28;1700;-66
2024/03/13 02:32:50;;;;;;;;;;;;;;;19.38;47.97;101106.28;2068001;28;2134;-67
2024/03/13 02:33:52;;;;;;;;;;;;;;;19.38;47.80;101095.53;2067806;28;2145;-67
2024/03/13 02:34:53;;;;;;;;;;;;;;;19.39;47.93;101099.16;2068177;28;2487;-67
2024/03/13 02:35:55;;;;;;;;;;;;;;;19.39;47.95;101102.00;2067309;28;1876;-66
2024/03/13 02:36:56;;;;;;;;;;;;;;;19.38;47.91;101092.66;2067870;28;2019;-67
2024/03/13 02:37:58;;;;;;;;;;;;;;;19.39;47.92;101097.00;2067392;28;1673;-67
2024/03/13 02:39:01;;;;;;;;;;;;;;;19.39;47.92;101099.16;2067858;28;1609;-66
2024/03/13 02:40:03;;;;;;;;;;;;;;;19.37;47.90;101087.53;2068391;28;2091;-67
2024/03/13 02:41:05;;;;;;;;;;;;;;;19.39;47.92;101096.28;2068334;28;2099;-67
2024/03/13 02:42:07;;;;;;;;;;;;;;;19.39;47.95;101102.00;2068550;28;1687;-66
2024/03/13 02:43:08;;;;;;;;;;;;;;;19.39;47.85;101096.28;2067694;28;1621;-67
2024/03/13 02:44:10;;;;;;;;;;;;;;;19.39;47.89;101097.00;2068663;28;2242;-67
2024/03/13 02:45:14;;;;;;;;;;;;;;;19.38;47.89;101089.78;2067199;28;1821;-66
2024/03/13 02:46:15;;;;;;;;;;;;;;;19.39;47.79;101096.28;2068298;28;2069;-67
2024/03/13 02:47:18;;;;;;;;;;;;;;;19.37;47.88;101091.16;2069434;28;2176;-67
2024/03/13 02:48:19;;;;;;;;;;;;;;;19.37;47.97;101094.03;2068520;28;1636;-67
2024/03/13 02:49:21;;;;;;;;;;;;;;;19.37;47.91;101087.53;2067529;28;1675;-67
2024/03/13 02:50:22;;;;;;;;;;;;;;;19.36;47.88;101091.81;2068399;28;1685;-66
2024/03/13 02:51:24;;;;;;;;;;;;;;;19.37;47.90;101081.81;2066582;28;2106;-67
2024/03/13 02:52:26;;;;;;;;;;;;;;;19.38;47.88;101091.91;2067530;28;1712;-67
2024/03/13 02:53:27;;;;;;;;;;;;;;;19.36;47.95;101092.53;2069064;28;2047;-67
2024/03/13 02:54:28;;;;;;;;;;;;;;;19.37;47.95;101093.28;2066610;28;2264;-67
2024/03/13 02:55:30;;;;;;;;;;;;;;;19.36;47.90;101097.56;2067344;28;2044;-67
2024/03/13 02:56:31;;;;;;;;;;;;;;;19.36;47.83;101094.69;2067576;28;2033;-67
2024/03/13 02:57:33;;;;;;;;;;;;;;;19.35;47.83;101091.03;2068360;28;2059;-67
2024/03/13 02:58:35;;;;;;;;;;;;;;;19.35;47.90;101090.31;2067994;28;1762;-67
2024/03/13 02:59:38;;;;;;;;;;;;;;;19.33;47.87;101088.06;2066326;28;1624;-67
2024/03/13 03:00:39;;;;;;;;;;;;;;;19.34;47.94;101094.56;2067458;28;6310;-67
2024/03/13 03:01:41;;;;;;;;;;;;;;;19.33;47.93;101093.06;2066514;28;2039;-67
2024/03/13 03:02:42;;;;;;;;;;;;;;;19.34;47.92;101111.78;2068138;28;2242;-67
2024/03/13 03:03:43;;;;;;;;;;;;;;;19.33;47.92;101105.28;2067255;28;2488;-67
2024/03/13 03:04:45;;;;;;;;;;;;;;;19.34;47.81;101106.06;2068855;28;1600;-67
2024/03/13 03:05:46;;;;;;;;;;;;;;;19.33;48.00;101110.28;2067579;28;1637;-67
2024/03/13 03:06:48;;;;;;;;;;;;;;;19.33;47.98;101116.03;2067170;28;1919;-67
2024/03/13 03:07:49;;;;;;;;;;;;;;;19.33;47.89;101104.53;2067486;28;2150;-67
2024/03/13 03:08:51;;;;;;;;;;;;;;;19.33;47.87;101099.53;2067222;28;1629;-66
2024/03/13 03:09:53;;;;;;;;;;;;;;;19.33;47.93;101098.81;2067702;28;2063;-67
2024/03/13 03:10:54;;;;;;;;;;;;;;;19.34;47.92;101106.06;2066528;28;1694;-67
2024/03/13 03:11:56;;;;;;;;;;;;;;;19.33;47.96;101101.69;2066485;28;2055;-67
2024/03/13 03:12:58;;;;;;;;;;;;;;;19.33;47.93;101107.41;2067812;28;2162;-67
2024/03/13 03:14:00;;;;;;;;;;;;;;;19.31;47.91;101105.19;2067552;28;1687;-67
2024/03/13 03:15:01;;;;;;;;;;;;;;;19.33;47.89;101104.53;2066978;28;1808;-67
2024/03/13 03:16:03;;;;;;;;;;;;;;;19.32;47.88;101105.94;2068601;28;1641;-67
2024/03/13 03:17:04;;;;;;;;;;;;;;;19.33;47.96;101104.53;2067967;28;2055;-67
2024/03/13 03:18:06;;;;;;;;;;;;;;;19.32;47.91;101106.69;2067957;28;2019;-67
2024/03/13 03:19:08;;;;;;;;;;;;;;;19.32;47.91;101100.19;2067183;28;1671;-67
2024/03/13 03:20:10;;;;;;;;;;;;;;;19.30;47.98;101106.56;2067925;28;1628;-67
2024/03/13 03:21:12;;;;;;;;;;;;;;;19.31;47.83;101110.19;2066994;28;2256;-67
2024/03/13 03:22:15;;;;;;;;;;;;;;;19.31;47.87;101110.94;2068554;28;1752;-67
2024/03/13 03:23:16;;;;;;;;;;;;;;;19.31;47.83;101107.31;2067883;28;2031;-67
2024/03/13 03:24:17;;;;;;;;;;;;;;;19.31;47.91;101113.03;2068835;28;2041;-67
2024/03/13 03:25:19;;;;;;;;;;;;;;;19.30;47.75;101106.56;2066867;28;2063;-67
2024/03/13 03:26:20;;;;;;;;;;;;;;;19.30;47.89;101106.56;2068939;28;1585;-67
2024/03/13 03:27:23;;;;;;;;;;;;;;;19.31;47.86;101104.44;2067566;28;1973;-67
2024/03/13 03:28:25;;;;;;;;;;;;;;;19.30;47.85;101109.44;2065828;28;1798;-67
2024/03/13 03:29:27;;;;;;;;;;;;;;;19.30;47.87;101106.56;2068088;28;2085;-67
2024/03/13 03:30:30;;;;;;;;;;;;;;;19.30;47.83;101111.56;2067074;28;6106;-67
2024/03/13 03:31:32;;;;;;;;;;;;;;;19.30;47.90;101105.81;2066391;28;2237;-67
2024/03/13 03:32:34;;;;;;;;;;;;;;;19.28;47.87;101109.31;2067560;28;1901;-67
2024/03/13 03:33:37;;;;;;;;;;;;;;;19.29;47.83;101105.09;2066776;28;1723;-67
2024/03/13 03:34:39;;;;;;;;;;;;;;;19.30;47.79;101105.81;2067637;28;2180;-68
2024/03/13 03:35:41;;;;;;;;;;;;;;;19.29;47.85;101098.56;2068299;28;1723;-67
2024/03/13 03:36:42;;;;;;;;;;;;;;;19.29;47.93;101104.31;2067074;28;1624;-67
2024/03/13 03:37:44;;;;;;;;;;;;;;;19.30;47.91;101100.09;2067895;28;1716;-66
2024/03/13 03:38:45;;;;;;;;;;;;;;;19.30;47.81;101105.81;2065975;28;2069;-67
2024/03/13 03:39:48;;;;;;;;;;;;;;;19.29;47.66;101092.84;2066720;28;1929;-67
2024/03/13 03:40:49;;;;;;;;;;;;;;;19.29;47.86;101105.09;2068386;28;1624;-67
2024/03/13 03:41:52;;;;;;;;;;;;;;;19.29;47.91;101105.09;2068338;28;1609;-67
2024/03/13 03:42:53;;;;;;;;;;;;;;;19.30;47.80;101095.06;2066779;28;1622;-67
2024/03/13 03:43:54;;;;;;;;;;;;;;;19.31;47.77;101090.06;2067340;28;2006;-66
2024/03/13 03:44:56;;;;;;;;;;;;;;;19.31;47.74;101096.59;2068090;28;2114;-66
2024/03/13 03:45:57;;;;;;;;;;;;;;;19.33;47.65;101101.69;2068023;28;2142;-67
2024/03/13 03:46:59;;;;;;;;;;;;;;;19.34;47.66;101094.56;2067524;28;2101;-67
2024/03/13 03:48:00;;;;;;;;;;;;;;;19.35;47.62;101107.53;2067421;28;1923;-67
2024/03/13 03:49:12;;;;;;;;;;;;;;;19.35;47.68;101091.03;2067640;28;1823;-67
2024/03/13 03:50:14;;;;;;;;;;;;;;;19.35;47.55;101093.16;2066682;28;2032;-67
2024/03/13 03:51:16;;;;;;;;;;;;;;;19.37;47.56;101099.78;2067848;28;2168;-67
2024/03/13 03:52:18;;;;;;;;;;;;;;;19.38;47.48;101092.66;2066076;28;2035;-67
2024/03/13 03:53:19;;;;;;;;;;;;;;;19.40;47.60;101103.50;2066823;28;2142;-67
2024/03/13 03:54:21;;;;;;;;;;;;;;;19.39;47.64;101096.28;2067166;28;1687;-67
2024/03/13 03:55:22;;;;;;;;;;;;;;;19.40;47.73;101104.25;2066218;28;1848;-66
2024/03/13 03:56:24;;;;;;;;;;;;;;;19.41;47.42;101100.00;2067271;28;1943;-67
2024/03/13 03:57:25;;;;;;;;;;;;;;;19.41;47.87;101102.13;2067548;28;1637;-67
2024/03/13 03:58:27;;;;;;;;;;;;;;;19.43;47.96;101102.25;2066730;28;2014;-66
2024/03/13 03:59:28;;;;;;;;;;;;;;;19.42;48.02;101104.38;2067192;28;1602;-67
2024/03/13 04:00:30;;;;;;;;;;;;;;;19.42;47.94;101100.72;2065650;28;6128;-67
2024/03/13 04:01:32;;;;;;;;;;;;;;;19.43;48.01;101102.25;2067104;28;1715;-67
2024/03/13 04:02:33;;;;;;;;;;;;;;;19.42;47.99;101106.47;2068528;28;1629;-67
2024/03/13 04:03:34;;;;;;;;;;;;;;;19.42;47.92;101107.25;2066387;28;2215;-67
2024/03/13 04:04:36;;;;;;;;;;;;;;;19.43;47.93;101102.25;2067292;28;2142;-66
2024/03/13 04:05:40;;;;;;;;;;;;;;;19.43;47.93;101105.13;2067371;28;2088;-67
2024/03/13 04:06:41;;;;;;;;;;;;;;;19.43;48.00;101105.13;2067183;28;2042;-66
2024/03/13 04:07:42;;;;;;;;;;;;;;;19.42;47.95;101107.25;2065214;28;2161;-66
2024/03/13 04:08:44;;;;;;;;;;;;;;;19.43;48.06;101102.25;2065740;28;2099;-67
2024/03/13 04:09:47;;;;;;;;;;;;;;;19.41;48.01;101100.00;2067724;28;2086;-67
2024/03/13 04:10:48;;;;;;;;;;;;;;;19.42;47.97;101107.25;2067047;28;2063;-67
2024/03/13 04:11:52;;;;;;;;;;;;;;;19.42;48.07;101101.50;2067352;28;2046;-67
2024/03/13 04:12:53;;;;;;;;;;;;;;;19.43;48.08;101102.25;2067506;28;1704;-67
2024/03/13 04:13:55;;;;;;;;;;;;;;;19.44;48.13;101103.72;2066537;28;1604;-67
2024/03/13 04:14:57;;;;;;;;;;;;;;;19.43;48.02;101102.97;2067034;28;2163;-67
2024/03/13 04:15:58;;;;;;;;;;;;;;;19.44;47.98;101097.97;2066888;28;2190;-67
2024/03/13 04:16:59;;;;;;;;;;;;;;;19.44;48.11;101100.84;2066886;28;2024;-67
2024/03/13 04:18:01;;;;;;;;;;;;;;;19.45;48.22;101108.09;2067841;28;2058;-67
2024/03/13 04:19:02;;;;;;;;;;;;;;;19.45;48.31;101105.22;2067736;28;1612;-67
2024/03/13 04:20:12;;;;;;;;;;;;;;;19.45;48.31;101105.97;2066383;28;2329;-67
2024/03/13 04:21:13;;;;;;;;;;;;;;;19.45;48.42;101094.47;2067069;28;2078;-67
2024/03/13 04:22:15;;;;;;;;;;;;;;;19.45;48.63;101100.22;2066799;28;1719;-67
2024/03/13 04:23:16;;;;;;;;;;;;;;;19.46;48.63;101101.69;2068355;28;1613;-68
2024/03/13 04:24:17;;;;;;;;;;;;;;;19.47;48.56;101102.47;2067175;28;1718;-67
2024/03/13 04:25:19;;;;;;;;;;;;;;;19.48;48.64;101103.94;2065891;28;2059;-67
2024/03/13 04:26:21;;;;;;;;;;;;;;;19.48;48.58;101098.19;2067100;28;2090;-67
2024/03/13 04:27:22;;;;;;;;;;;;;;;19.48;48.64;101103.19;2068585;28;1646;-67
2024/03/13 04:28:23;;;;;;;;;;;;;;;19.48;48.54;101109.69;2066058;28;2074;-67
2024/03/13 04:29:25;;;;;;;;;;;;;;;19.49;48.44;101110.44;2066989;28;1680;-67
2024/03/13 04:30:41;;;;;;;;;;;;;;;19.49;48.35;101098.94;2066237;28;6319;-67
2024/03/13 04:31:42;;;;;;;;;;;;;;;19.49;48.59;101107.56;2067280;28;2255;-68
2024/03/13 04:32:44;;;;;;;;;;;;;;;19.50;48.54;101106.94;2068261;28;1810;-67
2024/03/13 04:33:45;;;;;;;;;;;;;;;19.48;48.58;101115.44;2066670;28;2170;-67
2024/03/13 04:34:47;;;;;;;;;;;;;;;19.49;48.62;101113.28;2065669;28;2107;-67
2024/03/13 04:35:48;;;;;;;;;;;;;;;19.48;48.61;101112.56;2068493;28;1870;-67
2024/03/13 04:36:49;;;;;;;;;;;;;;;19.48;48.56;101115.44;2068251;28;1597;-67
2024/03/13 04:37:51;;;;;;;;;;;;;;;19.48;48.48;101108.94;2067466;28;1885;-67
2024/03/13 04:38:53;;;;;;;;;;;;;;;19.48;48.60;101108.94;2065424;28;2053;-67
2024/03/13 04:39:54;;;;;;;;;;;;;;;19.48;48.64;101109.69;2068503;28;2102;-67
2024/03/13 04:40:56;;;;;;;;;;;;;;;19.47;48.51;101113.94;2067566;28;1532;-67
2024/03/13 04:41:57;;;;;;;;;;;;;;;19.47;48.57;101108.22;2066594;28;2165;-67
2024/03/13 04:43:00;;;;;;;;;;;;;;;19.46;48.47;101112.44;2066668;28;1937;-66
2024/03/13 04:44:01;;;;;;;;;;;;;;;19.47;48.36;101113.94;2067106;28;2150;-67
2024/03/13 04:45:02;;;;;;;;;;;;;;;19.47;48.54;101113.94;2066481;28;2194;-67
2024/03/13 04:46:04;;;;;;;;;;;;;;;19.48;48.30;101111.81;2068094;28;1929;-66
2024/03/13 04:47:07;;;;;;;;;;;;;;;19.47;48.44;101113.94;2068958;28;2042;-66
2024/03/13 04:48:09;;;;;;;;;;;;;;;19.47;48.42;101102.47;2068329;28;1910;-67
2024/03/13 04:49:11;;;;;;;;;;;;;;;19.48;48.27;101103.94;2067285;28;1999;-67
2024/03/13 04:50:12;;;;;;;;;;;;;;;19.49;48.43;101105.41;2068079;28;2105;-67
2024/03/13 04:51:14;;;;;;;;;;;;;;;19.49;48.39;101114.03;2068622;28;1945;-67
2024/03/13 04:52:15;;;;;;;;;;;;;;;19.50;48.60;101106.19;2068363;28;1650;-67
2024/03/13 04:53:22;;;;;;;;;;;;;;;19.49;48.62;101111.16;2069089;28;1601;-67
2024/03/13 04:54:24;;;;;;;;;;;;;;;19.49;48.65;101111.16;2070115;28;1639;-67
2024/03/13 04:55:25;;;;;;;;;;;;;;;19.50;48.56;101114.81;2067357;28;2227;-67
2024/03/13 04:56:27;;;;;;;;;;;;;;;19.51;48.75;101113.41;2068269;28;2126;-67
2024/03/13 04:57:28;;;;;;;;;;;;;;;19.51;48.66;101108.41;2068616;28;2129;-67
2024/03/13 04:58:30;;;;;;;;;;;;;;;19.51;48.73;101114.16;2066821;28;2089;-66
2024/03/13 04:59:31;;;;;;;;;;;;;;;19.52;48.88;101109.16;2067508;28;2181;-67
2024/03/13 05:00:33;;;;;;;;;;;;;;;19.52;48.92;101112.78;2069149;28;6610;-67
2024/03/13 05:01:34;;;;;;;;;;;;;;;19.52;48.70;101112.78;2066755;28;2059;-67
2024/03/13 05:02:35;;;;;;;;;;;;;;;19.52;48.63;101109.91;2067960;28;2031;-67
2024/03/13 05:03:42;;;;;;;;;;;;;;;19.52;48.67;101109.91;2068160;28;1596;-67
2024/03/13 05:04:43;;;;;;;;;;;;;;;19.52;48.78;101109.91;2068467;28;1562;-66
2024/03/13 05:05:47;;;;;;;;;;;;;;;19.52;48.76;101109.16;2068963;28;1592;-67
2024/03/13 05:06:50;;;;;;;;;;;;;;;19.53;48.68;101116.41;2067937;28;1649;-67
2024/03/13 05:07:51;;;;;;;;;;;;;;;19.52;48.68;101115.66;2067842;28;1535;-67
2024/03/13 05:08:56;;;;;;;;;;;;;;;19.53;48.77;101116.41;2068259;28;1524;-67
2024/03/13 05:09:57;;;;;;;;;;;;;;;19.52;48.81;101112.03;2067884;28;1778;-67
2024/03/13 05:10:58;;;;;;;;;;;;;;;19.52;48.75;101118.53;2068129;28;1540;-67
2024/03/13 05:12:00;;;;;;;;;;;;;;;19.52;49.04;101114.91;2067494;28;2001;-67
2024/03/13 05:13:01;;;;;;;;;;;;;;;19.51;48.91;101108.41;2067776;28;2131;-66
2024/03/13 05:14:03;;;;;;;;;;;;;;;19.51;48.96;101119.91;2068739;28;2155;-66
2024/03/13 05:15:05;;;;;;;;;;;;;;;19.51;48.96;101111.28;2067940;28;2143;-67
2024/03/13 05:16:09;;;;;;;;;;;;;;;19.51;48.88;101119.91;2068565;28;2155;-67
2024/03/13 05:17:15;;;;;;;;;;;;;;;19.51;48.96;101114.16;2067297;28;1716;-67
2024/03/13 05:18:17;;;;;;;;;;;;;;;19.51;48.78;101119.91;2067862;28;1632;-67
2024/03/13 05:19:19;;;;;;;;;;;;;;;19.50;48.76;101127.03;2068254;28;1614;-67
2024/03/13 05:20:22;;;;;;;;;;;;;;;19.51;48.82;101117.03;2067869;28;1579;-67
2024/03/13 05:21:25;;;;;;;;;;;;;;;19.51;48.76;101122.75;2067215;28;1983;-67
2024/03/13 05:22:29;;;;;;;;;;;;;;;19.51;48.86;101128.50;2067728;28;1579;-67
2024/03/13 05:23:31;;;;;;;;;;;;;;;19.50;48.75;101115.53;2068434;28;2038;-67
2024/03/13 05:24:32;;;;;;;;;;;;;;;19.51;48.60;101125.63;2068533;28;2202;-67
2024/03/13 05:25:33;;;;;;;;;;;;;;;19.51;48.76;101131.38;2067962;28;2205;-67
2024/03/13 05:26:35;;;;;;;;;;;;;;;19.51;48.82;101128.50;2068511;28;2267;-66
2024/03/13 05:27:37;;;;;;;;;;;;;;;19.51;48.80;101125.63;2069827;28;2310;-68
2024/03/13 05:28:38;;;;;;;;;;;;;;;19.52;48.96;101135.75;2068516;28;2102;-67
2024/03/13 05:29:39;;;;;;;;;;;;;;;19.51;49.01;101124.91;2067731;28;2173;-67
2024/03/13 05:30:41;;;;;;;;;;;;;;;19.50;48.88;101132.78;2066595;28;6230;-67
2024/03/13 05:31:44;;;;;;;;;;;;;;;19.48;49.10;101129.78;2066492;28;2061;-67
2024/03/13 05:32:45;;;;;;;;;;;;;;;19.24;47.78;101135.69;2067158;28;2075;-67
2024/03/13 05:33:47;;;;;;;;;;;;;;;19.03;46.48;101130.19;2066104;28;2145;-67
2024/03/13 05:34:49;;;;;;;;;;;;;;;18.95;46.85;101126.88;2068586;28;1929;-67
2024/03/13 05:35:51;;;;;;;;;;;;;;;19.05;46.30;101130.31;2068352;28;1924;-67
2024/03/13 05:36:52;;;;;;;;;;;;;;;19.09;47.28;101135.53;2068271;28;1980;-67
2024/03/13 05:37:54;;;;;;;;;;;;;;;19.18;47.31;101135.34;2066731;28;2118;-68
2024/03/13 05:38:57;;;;;;;;;;;;;;;19.28;47.05;101138.03;2066551;28;2111;-67
2024/03/13 05:40:01;;;;;;;;;;;;;;;19.33;46.62;101136.13;2066229;28;1879;-69
2024/03/13 05:41:03;;;;;;;;;;;;;;;19.37;46.62;101139.22;2067991;28;2263;-68